< < Back
Terminal Aerodrome Forecast


Current Version              Previous Versions:   1  2  3  4  5  6  7  8  9  

Terminal Aerodrome Forecast

479
FTUS44 KBMX 211100
TAFTCL
TAF
KTCL 211139Z 2112/2212 00000KT 4SM BR SKC
     FM211300 27005KT P6SM SCT045
     FM220100 00000KT P6SM SKC=



Latest METAR

440
SAUS70 KWBC 220500 RRP
MTRTCL
METAR KTCL 220453Z AUTO 00000KT 10SM CLR 26/22 A3007 RMK AO2 SLP180
T02560217


USA.gov is the U.S. government's official web portal to all federal, state and local government web resources and services.